sensor_id;sensor_type;location;lat;lon;timestamp;P1;durP1;ratioP1;P2;durP2;ratioP2
6414;SDS011;3240;48.790;9.210;2022-09-23T00:01:54;8.60;;;6.30;;
6414;SDS011;3240;48.790;9.210;2022-09-23T00:04:22;11.67;;;5.90;;
6414;SDS011;3240;48.790;9.210;2022-09-23T00:06:50;11.63;;;6.70;;
6414;SDS011;3240;48.790;9.210;2022-09-23T00:09:18;11.00;;;6.70;;
6414;SDS011;3240;48.790;9.210;2022-09-23T00:11:46;14.00;;;7.13;;
6414;SDS011;3240;48.790;9.210;2022-09-23T00:14:14;9.43;;;6.23;;
6414;SDS011;3240;48.790;9.210;2022-09-23T00:16:42;20.60;;;7.30;;
6414;SDS011;3240;48.790;9.210;2022-09-23T00:19:10;10.17;;;6.70;;
6414;SDS011;3240;48.790;9.210;2022-09-23T00:21:38;9.80;;;7.33;;
6414;SDS011;3240;48.790;9.210;2022-09-23T00:24:06;16.60;;;7.43;;
6414;SDS011;3240;48.790;9.210;2022-09-23T00:26:34;8.10;;;6.07;;
6414;SDS011;3240;48.790;9.210;2022-09-23T00:29:02;12.20;;;7.03;;
6414;SDS011;3240;48.790;9.210;2022-09-23T00:31:31;11.40;;;8.03;;
6414;SDS011;3240;48.790;9.210;2022-09-23T00:33:59;14.67;;;6.77;;
6414;SDS011;3240;48.790;9.210;2022-09-23T00:36:27;14.97;;;7.10;;
6414;SDS011;3240;48.790;9.210;2022-09-23T00:38:55;10.57;;;7.47;;
6414;SDS011;3240;48.790;9.210;2022-09-23T00:41:23;10.57;;;7.20;;
6414;SDS011;3240;48.790;9.210;2022-09-23T00:43:52;11.20;;;7.40;;
6414;SDS011;3240;48.790;9.210;2022-09-23T00:46:22;15.30;;;6.40;;
6414;SDS011;3240;48.790;9.210;2022-09-23T00:48:49;10.80;;;6.80;;
6414;SDS011;3240;48.790;9.210;2022-09-23T00:51:17;10.43;;;7.10;;
6414;SDS011;3240;48.790;9.210;2022-09-23T00:53:46;12.30;;;6.97;;
6414;SDS011;3240;48.790;9.210;2022-09-23T00:56:13;13.00;;;6.63;;
6414;SDS011;3240;48.790;9.210;2022-09-23T00:58:42;14.90;;;8.07;;
6414;SDS011;3240;48.790;9.210;2022-09-23T01:01:09;8.27;;;6.10;;
6414;SDS011;3240;48.790;9.210;2022-09-23T01:03:37;8.40;;;6.47;;
6414;SDS011;3240;48.790;9.210;2022-09-23T01:06:05;11.07;;;7.70;;
6414;SDS011;3240;48.790;9.210;2022-09-23T01:08:33;11.70;;;7.50;;
6414;SDS011;3240;48.790;9.210;2022-09-23T01:16:17;11.40;;;6.90;;
6414;SDS011;3240;48.790;9.210;2022-09-23T01:18:50;17.20;;;6.83;;
6414;SDS011;3240;48.790;9.210;2022-09-23T01:21:22;10.10;;;6.07;;
6414;SDS011;3240;48.790;9.210;2022-09-23T01:31:54;7.83;;;5.70;;
6414;SDS011;3240;48.790;9.210;2022-09-23T01:34:22;8.70;;;5.90;;
6414;SDS011;3240;48.790;9.210;2022-09-23T01:36:56;7.57;;;5.63;;
6414;SDS011;3240;48.790;9.210;2022-09-23T01:39:25;8.27;;;6.30;;
6414;SDS011;3240;48.790;9.210;2022-09-23T01:41:58;9.27;;;6.30;;
6414;SDS011;3240;48.790;9.210;2022-09-23T01:44:55;7.70;;;6.30;;
6414;SDS011;3240;48.790;9.210;2022-09-23T01:47:07;7.60;;;5.43;;
6414;SDS011;3240;48.790;9.210;2022-09-23T01:49:38;11.37;;;6.60;;
6414;SDS011;3240;48.790;9.210;2022-09-23T01:52:05;11.80;;;6.27;;
6414;SDS011;3240;48.790;9.210;2022-09-23T01:54:35;10.97;;;6.73;;
6414;SDS011;3240;48.790;9.210;2022-09-23T01:57:03;7.30;;;6.00;;
6414;SDS011;3240;48.790;9.210;2022-09-23T01:59:32;8.53;;;5.83;;
6414;SDS011;3240;48.790;9.210;2022-09-23T02:02:10;7.60;;;5.70;;
6414;SDS011;3240;48.790;9.210;2022-09-23T02:04:40;8.67;;;5.43;;
6414;SDS011;3240;48.790;9.210;2022-09-23T02:07:40;8.90;;;6.13;;
6414;SDS011;3240;48.790;9.210;2022-09-23T02:09:54;7.43;;;5.50;;
6414;SDS011;3240;48.790;9.210;2022-09-23T02:12:20;8.83;;;6.67;;
6414;SDS011;3240;48.790;9.210;2022-09-23T02:14:49;8.00;;;6.30;;
6414;SDS011;3240;48.790;9.210;2022-09-23T02:17:17;11.40;;;5.90;;
6414;SDS011;3240;48.790;9.210;2022-09-23T02:19:45;8.83;;;6.73;;
6414;SDS011;3240;48.790;9.210;2022-09-23T02:22:20;9.53;;;6.83;;
6414;SDS011;3240;48.790;9.210;2022-09-23T02:24:50;9.20;;;6.30;;
6414;SDS011;3240;48.790;9.210;2022-09-23T02:29:57;10.65;;;7.32;;
6414;SDS011;3240;48.790;9.210;2022-09-23T02:35:14;11.63;;;6.73;;
6414;SDS011;3240;48.790;9.210;2022-09-23T02:37:42;9.50;;;6.27;;
6414;SDS011;3240;48.790;9.210;2022-09-23T02:40:12;12.27;;;6.40;;
6414;SDS011;3240;48.790;9.210;2022-09-23T02:42:46;8.10;;;6.10;;
6414;SDS011;3240;48.790;9.210;2022-09-23T02:45:12;10.50;;;5.60;;
6414;SDS011;3240;48.790;9.210;2022-09-23T02:47:40;10.70;;;5.70;;
6414;SDS011;3240;48.790;9.210;2022-09-23T02:50:08;9.85;;;5.90;;
6414;SDS011;3240;48.790;9.210;2022-09-23T02:52:36;9.87;;;5.77;;
6414;SDS011;3240;48.790;9.210;2022-09-23T02:55:05;8.17;;;5.87;;
6414;SDS011;3240;48.790;9.210;2022-09-23T02:57:32;8.70;;;5.83;;
6414;SDS011;3240;48.790;9.210;2022-09-23T03:00:00;8.43;;;5.67;;
6414;SDS011;3240;48.790;9.210;2022-09-23T03:02:34;11.13;;;7.17;;
6414;SDS011;3240;48.790;9.210;2022-09-23T03:05:04;9.70;;;6.27;;
6414;SDS011;3240;48.790;9.210;2022-09-23T03:10:20;10.33;;;6.13;;
6414;SDS011;3240;48.790;9.210;2022-09-23T03:13:54;9.83;;;6.57;;
6414;SDS011;3240;48.790;9.210;2022-09-23T03:15:36;9.90;;;6.57;;
6414;SDS011;3240;48.790;9.210;2022-09-23T03:18:06;7.50;;;5.80;;
6414;SDS011;3240;48.790;9.210;2022-09-23T03:20:30;8.03;;;6.40;;
6414;SDS011;3240;48.790;9.210;2022-09-23T03:22:58;9.67;;;6.50;;
6414;SDS011;3240;48.790;9.210;2022-09-23T03:25:26;7.17;;;5.30;;
6414;SDS011;3240;48.790;9.210;2022-09-23T03:27:54;9.90;;;5.77;;
6414;SDS011;3240;48.790;9.210;2022-09-23T03:30:22;8.83;;;6.53;;
6414;SDS011;3240;48.790;9.210;2022-09-23T03:32:50;6.30;;;4.87;;
6414;SDS011;3240;48.790;9.210;2022-09-23T03:35:18;7.87;;;5.37;;
6414;SDS011;3240;48.790;9.210;2022-09-23T03:37:47;8.40;;;5.97;;
6414;SDS011;3240;48.790;9.210;2022-09-23T03:40:15;9.27;;;5.80;;
6414;SDS011;3240;48.790;9.210;2022-09-23T03:42:42;8.53;;;5.60;;
6414;SDS011;3240;48.790;9.210;2022-09-23T03:45:11;8.70;;;5.70;;
6414;SDS011;3240;48.790;9.210;2022-09-23T03:47:38;10.77;;;6.20;;
6414;SDS011;3240;48.790;9.210;2022-09-23T03:50:06;11.93;;;6.70;;
6414;SDS011;3240;48.790;9.210;2022-09-23T03:52:34;12.83;;;6.47;;
6414;SDS011;3240;48.790;9.210;2022-09-23T03:55:02;9.40;;;6.40;;
6414;SDS011;3240;48.790;9.210;2022-09-23T03:57:30;9.20;;;5.90;;
6414;SDS011;3240;48.790;9.210;2022-09-23T03:59:58;7.50;;;5.63;;
6414;SDS011;3240;48.790;9.210;2022-09-23T04:02:26;9.00;;;5.97;;
6414;SDS011;3240;48.790;9.210;2022-09-23T04:04:54;9.73;;;6.13;;
6414;SDS011;3240;48.790;9.210;2022-09-23T04:07:22;8.90;;;6.47;;
6414;SDS011;3240;48.790;9.210;2022-09-23T04:09:50;8.07;;;6.00;;
6414;SDS011;3240;48.790;9.210;2022-09-23T04:12:18;6.20;;;5.40;;
6414;SDS011;3240;48.790;9.210;2022-09-23T04:14:46;9.60;;;5.90;;
6414;SDS011;3240;48.790;9.210;2022-09-23T04:17:15;9.27;;;5.93;;
6414;SDS011;3240;48.790;9.210;2022-09-23T04:19:42;9.30;;;5.60;;
6414;SDS011;3240;48.790;9.210;2022-09-23T04:22:10;7.93;;;5.87;;
6414;SDS011;3240;48.790;9.210;2022-09-23T04:24:38;8.30;;;5.83;;
6414;SDS011;3240;48.790;9.210;2022-09-23T04:27:06;9.07;;;6.00;;
6414;SDS011;3240;48.790;9.210;2022-09-23T04:29:34;7.80;;;5.73;;
6414;SDS011;3240;48.790;9.210;2022-09-23T04:32:03;10.00;;;6.20;;
6414;SDS011;3240;48.790;9.210;2022-09-23T04:34:31;14.03;;;7.00;;
6414;SDS011;3240;48.790;9.210;2022-09-23T04:36:59;8.73;;;5.80;;
6414;SDS011;3240;48.790;9.210;2022-09-23T04:39:27;15.40;;;7.20;;
6414;SDS011;3240;48.790;9.210;2022-09-23T04:41:55;9.40;;;7.00;;
6414;SDS011;3240;48.790;9.210;2022-09-23T04:44:23;11.13;;;6.47;;
6414;SDS011;3240;48.790;9.210;2022-09-23T04:46:51;10.10;;;6.60;;
6414;SDS011;3240;48.790;9.210;2022-09-23T04:49:19;10.00;;;7.07;;
6414;SDS011;3240;48.790;9.210;2022-09-23T04:51:47;9.67;;;7.00;;
6414;SDS011;3240;48.790;9.210;2022-09-23T04:54:15;13.47;;;6.90;;
6414;SDS011;3240;48.790;9.210;2022-09-23T04:56:43;10.93;;;6.43;;
6414;SDS011;3240;48.790;9.210;2022-09-23T04:59:11;10.10;;;7.00;;
6414;SDS011;3240;48.790;9.210;2022-09-23T05:01:39;15.33;;;7.03;;
6414;SDS011;3240;48.790;9.210;2022-09-23T05:04:09;12.93;;;8.10;;
6414;SDS011;3240;48.790;9.210;2022-09-23T05:06:35;14.30;;;8.00;;
6414;SDS011;3240;48.790;9.210;2022-09-23T05:09:04;10.30;;;7.37;;
6414;SDS011;3240;48.790;9.210;2022-09-23T05:11:31;12.23;;;7.40;;
6414;SDS011;3240;48.790;9.210;2022-09-23T05:13:59;11.17;;;7.47;;
6414;SDS011;3240;48.790;9.210;2022-09-23T05:16:27;12.20;;;7.10;;
6414;SDS011;3240;48.790;9.210;2022-09-23T05:18:55;10.40;;;6.40;;
6414;SDS011;3240;48.790;9.210;2022-09-23T05:21:24;15.10;;;7.90;;
6414;SDS011;3240;48.790;9.210;2022-09-23T05:23:52;9.90;;;7.40;;
6414;SDS011;3240;48.790;9.210;2022-09-23T05:26:21;8.67;;;6.70;;
6414;SDS011;3240;48.790;9.210;2022-09-23T05:28:48;11.67;;;8.00;;
6414;SDS011;3240;48.790;9.210;2022-09-23T05:31:17;12.87;;;8.40;;
6414;SDS011;3240;48.790;9.210;2022-09-23T05:33:45;12.33;;;8.07;;
6414;SDS011;3240;48.790;9.210;2022-09-23T05:36:13;14.03;;;8.30;;
6414;SDS011;3240;48.790;9.210;2022-09-23T05:38:40;10.43;;;7.53;;
6414;SDS011;3240;48.790;9.210;2022-09-23T05:41:10;17.10;;;8.07;;
6414;SDS011;3240;48.790;9.210;2022-09-23T05:43:37;14.67;;;9.67;;
6414;SDS011;3240;48.790;9.210;2022-09-23T05:46:09;15.87;;;8.53;;
6414;SDS011;3240;48.790;9.210;2022-09-23T05:48:37;11.33;;;7.30;;
6414;SDS011;3240;48.790;9.210;2022-09-23T05:51:05;11.97;;;7.43;;
6414;SDS011;3240;48.790;9.210;2022-09-23T05:53:32;12.83;;;7.63;;
6414;SDS011;3240;48.790;9.210;2022-09-23T05:56:00;11.10;;;7.07;;
6414;SDS011;3240;48.790;9.210;2022-09-23T05:58:28;12.33;;;7.20;;
6414;SDS011;3240;48.790;9.210;2022-09-23T06:00:57;9.67;;;6.90;;
6414;SDS011;3240;48.790;9.210;2022-09-23T06:03:25;14.53;;;7.70;;
6414;SDS011;3240;48.790;9.210;2022-09-23T06:05:53;10.47;;;6.93;;
6414;SDS011;3240;48.790;9.210;2022-09-23T06:08:21;12.03;;;6.73;;
6414;SDS011;3240;48.790;9.210;2022-09-23T06:10:49;11.47;;;6.30;;
6414;SDS011;3240;48.790;9.210;2022-09-23T06:13:17;13.93;;;7.10;;
6414;SDS011;3240;48.790;9.210;2022-09-23T06:15:45;13.90;;;6.83;;
6414;SDS011;3240;48.790;9.210;2022-09-23T06:18:13;9.17;;;6.87;;
6414;SDS011;3240;48.790;9.210;2022-09-23T06:20:41;10.97;;;6.90;;
6414;SDS011;3240;48.790;9.210;2022-09-23T06:23:09;10.53;;;6.50;;
6414;SDS011;3240;48.790;9.210;2022-09-23T06:25:37;10.80;;;7.10;;
6414;SDS011;3240;48.790;9.210;2022-09-23T06:28:05;15.30;;;6.33;;
6414;SDS011;3240;48.790;9.210;2022-09-23T06:30:34;10.63;;;6.80;;
6414;SDS011;3240;48.790;9.210;2022-09-23T06:33:02;15.53;;;6.97;;
6414;SDS011;3240;48.790;9.210;2022-09-23T06:35:30;11.83;;;6.90;;
6414;SDS011;3240;48.790;9.210;2022-09-23T06:38:01;13.60;;;6.70;;
6414;SDS011;3240;48.790;9.210;2022-09-23T06:40:27;8.50;;;6.77;;
6414;SDS011;3240;48.790;9.210;2022-09-23T06:42:57;11.40;;;8.17;;
6414;SDS011;3240;48.790;9.210;2022-09-23T06:45:25;18.23;;;7.47;;
6414;SDS011;3240;48.790;9.210;2022-09-23T06:47:54;12.80;;;6.87;;
6414;SDS011;3240;48.790;9.210;2022-09-23T06:50:23;10.07;;;7.40;;
6414;SDS011;3240;48.790;9.210;2022-09-23T06:52:52;11.27;;;7.03;;
6414;SDS011;3240;48.790;9.210;2022-09-23T06:55:19;8.33;;;6.40;;
6414;SDS011;3240;48.790;9.210;2022-09-23T06:57:47;14.80;;;7.80;;
6414;SDS011;3240;48.790;9.210;2022-09-23T07:00:15;11.23;;;7.27;;
6414;SDS011;3240;48.790;9.210;2022-09-23T07:02:43;16.23;;;9.33;;
6414;SDS011;3240;48.790;9.210;2022-09-23T07:05:11;16.90;;;6.70;;
6414;SDS011;3240;48.790;9.210;2022-09-23T07:07:39;10.30;;;7.00;;
6414;SDS011;3240;48.790;9.210;2022-09-23T07:10:07;16.33;;;7.90;;
6414;SDS011;3240;48.790;9.210;2022-09-23T07:12:36;15.73;;;8.23;;
6414;SDS011;3240;48.790;9.210;2022-09-23T07:15:04;16.63;;;7.67;;
6414;SDS011;3240;48.790;9.210;2022-09-23T07:17:32;7.57;;;6.23;;
6414;SDS011;3240;48.790;9.210;2022-09-23T07:20:00;9.90;;;6.90;;
6414;SDS011;3240;48.790;9.210;2022-09-23T07:22:28;12.50;;;6.43;;
6414;SDS011;3240;48.790;9.210;2022-09-23T07:24:56;15.00;;;6.80;;
6414;SDS011;3240;48.790;9.210;2022-09-23T07:27:25;12.63;;;6.80;;
6414;SDS011;3240;48.790;9.210;2022-09-23T07:29:52;13.43;;;7.00;;
6414;SDS011;3240;48.790;9.210;2022-09-23T07:32:20;19.50;;;6.80;;
6414;SDS011;3240;48.790;9.210;2022-09-23T07:34:48;14.20;;;7.40;;
6414;SDS011;3240;48.790;9.210;2022-09-23T07:37:16;14.63;;;6.90;;
6414;SDS011;3240;48.790;9.210;2022-09-23T07:39:45;10.37;;;6.50;;
6414;SDS011;3240;48.790;9.210;2022-09-23T07:42:13;12.33;;;6.33;;
6414;SDS011;3240;48.790;9.210;2022-09-23T07:44:41;14.20;;;6.60;;
6414;SDS011;3240;48.790;9.210;2022-09-23T07:47:10;10.33;;;6.53;;
6414;SDS011;3240;48.790;9.210;2022-09-23T07:49:38;8.93;;;5.90;;
6414;SDS011;3240;48.790;9.210;2022-09-23T07:52:06;14.30;;;5.63;;
6414;SDS011;3240;48.790;9.210;2022-09-23T07:54:34;10.00;;;5.80;;
6414;SDS011;3240;48.790;9.210;2022-09-23T07:57:02;12.70;;;5.90;;
6414;SDS011;3240;48.790;9.210;2022-09-23T07:59:30;7.80;;;6.50;;
6414;SDS011;3240;48.790;9.210;2022-09-23T08:01:58;10.70;;;6.20;;
6414;SDS011;3240;48.790;9.210;2022-09-23T08:04:27;12.97;;;5.33;;
6414;SDS011;3240;48.790;9.210;2022-09-23T08:06:55;8.80;;;6.03;;
6414;SDS011;3240;48.790;9.210;2022-09-23T08:09:23;10.60;;;6.30;;
6414;SDS011;3240;48.790;9.210;2022-09-23T08:11:50;11.00;;;5.93;;
6414;SDS011;3240;48.790;9.210;2022-09-23T08:14:18;10.30;;;6.07;;
6414;SDS011;3240;48.790;9.210;2022-09-23T08:16:46;13.43;;;6.60;;
6414;SDS011;3240;48.790;9.210;2022-09-23T08:19:14;11.70;;;5.63;;
6414;SDS011;3240;48.790;9.210;2022-09-23T08:21:42;10.03;;;6.00;;
6414;SDS011;3240;48.790;9.210;2022-09-23T08:24:11;12.43;;;5.90;;
6414;SDS011;3240;48.790;9.210;2022-09-23T08:26:38;9.47;;;5.47;;
6414;SDS011;3240;48.790;9.210;2022-09-23T08:29:06;6.30;;;4.90;;
6414;SDS011;3240;48.790;9.210;2022-09-23T08:31:36;7.50;;;5.47;;
6414;SDS011;3240;48.790;9.210;2022-09-23T08:34:04;11.40;;;6.03;;
6414;SDS011;3240;48.790;9.210;2022-09-23T08:36:33;11.80;;;4.67;;
6414;SDS011;3240;48.790;9.210;2022-09-23T08:39:00;10.17;;;6.07;;
6414;SDS011;3240;48.790;9.210;2022-09-23T08:44:13;13.18;;;6.20;;
6414;SDS011;3240;48.790;9.210;2022-09-23T08:46:43;6.93;;;5.37;;
6414;SDS011;3240;48.790;9.210;2022-09-23T08:49:10;8.57;;;5.20;;
6414;SDS011;3240;48.790;9.210;2022-09-23T08:51:40;7.40;;;5.10;;
6414;SDS011;3240;48.790;9.210;2022-09-23T08:54:09;9.93;;;4.73;;
6414;SDS011;3240;48.790;9.210;2022-09-23T08:56:35;6.87;;;4.77;;
6414;SDS011;3240;48.790;9.210;2022-09-23T08:59:12;8.80;;;5.60;;
6414;SDS011;3240;48.790;9.210;2022-09-23T09:01:41;9.47;;;5.73;;
6414;SDS011;3240;48.790;9.210;2022-09-23T09:04:41;8.43;;;5.40;;
6414;SDS011;3240;48.790;9.210;2022-09-23T09:06:57;11.30;;;5.43;;
6414;SDS011;3240;48.790;9.210;2022-09-23T09:09:27;8.03;;;4.30;;
6414;SDS011;3240;48.790;9.210;2022-09-23T09:11:56;6.53;;;4.90;;
6414;SDS011;3240;48.790;9.210;2022-09-23T09:14:24;6.50;;;4.90;;
6414;SDS011;3240;48.790;9.210;2022-09-23T09:16:56;42.00;;;21.63;;
6414;SDS011;3240;48.790;9.210;2022-09-23T09:21:56;7.60;;;4.93;;
6414;SDS011;3240;48.790;9.210;2022-09-23T09:24:29;6.73;;;5.10;;
6414;SDS011;3240;48.790;9.210;2022-09-23T09:26:55;7.20;;;4.80;;
6414;SDS011;3240;48.790;9.210;2022-09-23T09:29:25;10.13;;;5.00;;
6414;SDS011;3240;48.790;9.210;2022-09-23T09:31:51;10.23;;;6.03;;
6414;SDS011;3240;48.790;9.210;2022-09-23T09:37:06;9.07;;;5.47;;
6414;SDS011;3240;48.790;9.210;2022-09-23T09:39:32;13.77;;;5.87;;
6414;SDS011;3240;48.790;9.210;2022-09-23T09:42:01;6.83;;;5.00;;
6414;SDS011;3240;48.790;9.210;2022-09-23T09:44:31;7.23;;;5.20;;
6414;SDS011;3240;48.790;9.210;2022-09-23T09:47:02;10.83;;;5.30;;
6414;SDS011;3240;48.790;9.210;2022-09-23T09:49:32;8.20;;;5.00;;
6414;SDS011;3240;48.790;9.210;2022-09-23T09:54:32;8.80;;;4.73;;
6414;SDS011;3240;48.790;9.210;2022-09-23T09:57:02;7.90;;;4.87;;
6414;SDS011;3240;48.790;9.210;2022-09-23T09:59:28;7.87;;;4.73;;
6414;SDS011;3240;48.790;9.210;2022-09-23T10:04:32;6.03;;;4.70;;
6414;SDS011;3240;48.790;9.210;2022-09-23T10:07:03;6.50;;;4.77;;
6414;SDS011;3240;48.790;9.210;2022-09-23T10:09:31;7.73;;;4.40;;
6414;SDS011;3240;48.790;9.210;2022-09-23T10:12:01;9.13;;;4.80;;
6414;SDS011;3240;48.790;9.210;2022-09-23T10:14:28;8.85;;;4.60;;
6414;SDS011;3240;48.790;9.210;2022-09-23T10:17:02;11.17;;;4.37;;
6414;SDS011;3240;48.790;9.210;2022-09-23T10:19:29;9.07;;;4.90;;
6414;SDS011;3240;48.790;9.210;2022-09-23T10:21:58;6.03;;;4.40;;
6414;SDS011;3240;48.790;9.210;2022-09-23T10:24:26;10.77;;;4.63;;
6414;SDS011;3240;48.790;9.210;2022-09-23T10:26:56;8.40;;;4.37;;
6414;SDS011;3240;48.790;9.210;2022-09-23T10:29:27;5.80;;;4.30;;
6414;SDS011;3240;48.790;9.210;2022-09-23T10:32:11;12.13;;;4.57;;
6414;SDS011;3240;48.790;9.210;2022-09-23T10:34:22;7.90;;;5.13;;
6414;SDS011;3240;48.790;9.210;2022-09-23T10:36:53;8.70;;;5.40;;
6414;SDS011;3240;48.790;9.210;2022-09-23T10:39:21;8.83;;;4.63;;
6414;SDS011;3240;48.790;9.210;2022-09-23T10:42:00;4.93;;;4.07;;
6414;SDS011;3240;48.790;9.210;2022-09-23T10:44:35;5.33;;;3.50;;
6414;SDS011;3240;48.790;9.210;2022-09-23T10:47:11;5.20;;;3.90;;
6414;SDS011;3240;48.790;9.210;2022-09-23T10:49:39;8.93;;;4.07;;
6414;SDS011;3240;48.790;9.210;2022-09-23T10:52:12;5.30;;;3.93;;
6414;SDS011;3240;48.790;9.210;2022-09-23T11:00:02;5.93;;;3.70;;
6414;SDS011;3240;48.790;9.210;2022-09-23T11:03:05;7.37;;;4.30;;
6414;SDS011;3240;48.790;9.210;2022-09-23T11:07:54;4.40;;;3.53;;
6414;SDS011;3240;48.790;9.210;2022-09-23T11:10:22;6.37;;;3.97;;
6414;SDS011;3240;48.790;9.210;2022-09-23T11:13:07;7.10;;;4.27;;
6414;SDS011;3240;48.790;9.210;2022-09-23T11:23:30;5.70;;;3.50;;
6414;SDS011;3240;48.790;9.210;2022-09-23T11:26:04;4.83;;;2.77;;
6414;SDS011;3240;48.790;9.210;2022-09-23T11:28:31;4.40;;;3.07;;
6414;SDS011;3240;48.790;9.210;2022-09-23T11:31:00;5.63;;;2.97;;
6414;SDS011;3240;48.790;9.210;2022-09-23T11:36:00;5.80;;;3.27;;
6414;SDS011;3240;48.790;9.210;2022-09-23T11:38:26;4.67;;;2.67;;
6414;SDS011;3240;48.790;9.210;2022-09-23T11:40:55;4.10;;;3.00;;
6414;SDS011;3240;48.790;9.210;2022-09-23T11:43:24;6.20;;;3.22;;
6414;SDS011;3240;48.790;9.210;2022-09-23T11:45:57;7.90;;;3.63;;
6414;SDS011;3240;48.790;9.210;2022-09-23T11:48:26;6.90;;;3.60;;
6414;SDS011;3240;48.790;9.210;2022-09-23T11:50:54;5.20;;;2.70;;
6414;SDS011;3240;48.790;9.210;2022-09-23T11:53:23;5.63;;;2.73;;
6414;SDS011;3240;48.790;9.210;2022-09-23T11:58:35;5.63;;;2.97;;
6414;SDS011;3240;48.790;9.210;2022-09-23T12:01:03;3.27;;;2.80;;
6414;SDS011;3240;48.790;9.210;2022-09-23T12:03:34;5.10;;;3.10;;
6414;SDS011;3240;48.790;9.210;2022-09-23T12:06:00;6.93;;;3.50;;
6414;SDS011;3240;48.790;9.210;2022-09-23T12:08:28;4.10;;;3.70;;
6414;SDS011;3240;48.790;9.210;2022-09-23T12:13:50;4.30;;;3.40;;
6414;SDS011;3240;48.790;9.210;2022-09-23T12:16:24;5.00;;;3.60;;
6414;SDS011;3240;48.790;9.210;2022-09-23T12:18:47;4.60;;;3.30;;
6414;SDS011;3240;48.790;9.210;2022-09-23T12:23:56;3.83;;;3.00;;
6414;SDS011;3240;48.790;9.210;2022-09-23T12:26:22;4.50;;;3.47;;
6414;SDS011;3240;48.790;9.210;2022-09-23T12:28:49;5.40;;;2.83;;
6414;SDS011;3240;48.790;9.210;2022-09-23T12:31:18;5.20;;;3.20;;
6414;SDS011;3240;48.790;9.210;2022-09-23T12:33:48;5.33;;;3.43;;
6414;SDS011;3240;48.790;9.210;2022-09-23T12:36:15;5.67;;;4.00;;
6414;SDS011;3240;48.790;9.210;2022-09-23T12:38:47;11.20;;;3.60;;
6414;SDS011;3240;48.790;9.210;2022-09-23T12:41:31;3.90;;;3.20;;
6414;SDS011;3240;48.790;9.210;2022-09-23T12:43:58;7.77;;;3.73;;
6414;SDS011;3240;48.790;9.210;2022-09-23T12:46:25;4.30;;;3.60;;
6414;SDS011;3240;48.790;9.210;2022-09-23T12:48:57;6.47;;;3.67;;
6414;SDS011;3240;48.790;9.210;2022-09-23T12:51:24;5.20;;;4.10;;
6414;SDS011;3240;48.790;9.210;2022-09-23T12:53:54;6.13;;;3.53;;
6414;SDS011;3240;48.790;9.210;2022-09-23T12:56:22;5.73;;;4.03;;
6414;SDS011;3240;48.790;9.210;2022-09-23T12:58:56;6.70;;;4.50;;
6414;SDS011;3240;48.790;9.210;2022-09-23T13:01:24;6.00;;;4.70;;
6414;SDS011;3240;48.790;9.210;2022-09-23T13:03:53;5.63;;;4.40;;
6414;SDS011;3240;48.790;9.210;2022-09-23T13:06:30;6.70;;;3.77;;
6414;SDS011;3240;48.790;9.210;2022-09-23T13:09:00;4.03;;;3.63;;
6414;SDS011;3240;48.790;9.210;2022-09-23T13:11:28;9.13;;;4.23;;
6414;SDS011;3240;48.790;9.210;2022-09-23T13:13:57;5.63;;;4.63;;
6414;SDS011;3240;48.790;9.210;2022-09-23T13:16:25;6.50;;;4.40;;
6414;SDS011;3240;48.790;9.210;2022-09-23T13:18:53;5.67;;;5.07;;
6414;SDS011;3240;48.790;9.210;2022-09-23T13:26:27;11.10;;;4.30;;
6414;SDS011;3240;48.790;9.210;2022-09-23T13:28:56;8.43;;;4.20;;
6414;SDS011;3240;48.790;9.210;2022-09-23T13:31:24;5.70;;;4.57;;
6414;SDS011;3240;48.790;9.210;2022-09-23T13:33:53;5.87;;;3.80;;
6414;SDS011;3240;48.790;9.210;2022-09-23T13:36:20;7.80;;;4.20;;
6414;SDS011;3240;48.790;9.210;2022-09-23T13:38:48;5.10;;;3.63;;
6414;SDS011;3240;48.790;9.210;2022-09-23T13:41:17;8.70;;;4.17;;
6414;SDS011;3240;48.790;9.210;2022-09-23T13:43:47;5.03;;;4.20;;
6414;SDS011;3240;48.790;9.210;2022-09-23T13:46:15;5.40;;;3.77;;
6414;SDS011;3240;48.790;9.210;2022-09-23T13:48:43;8.03;;;3.70;;
6414;SDS011;3240;48.790;9.210;2022-09-23T13:51:15;5.70;;;3.67;;
6414;SDS011;3240;48.790;9.210;2022-09-23T13:53:39;3.17;;;2.90;;
6414;SDS011;3240;48.790;9.210;2022-09-23T13:56:12;3.70;;;3.10;;
6414;SDS011;3240;48.790;9.210;2022-09-23T13:58:39;5.27;;;3.23;;
6414;SDS011;3240;48.790;9.210;2022-09-23T14:01:08;5.50;;;3.83;;
6414;SDS011;3240;48.790;9.210;2022-09-23T14:03:36;7.97;;;4.27;;
6414;SDS011;3240;48.790;9.210;2022-09-23T14:06:06;5.87;;;4.07;;
6414;SDS011;3240;48.790;9.210;2022-09-23T14:08:32;6.50;;;4.33;;
6414;SDS011;3240;48.790;9.210;2022-09-23T14:11:00;4.23;;;3.80;;
6414;SDS011;3240;48.790;9.210;2022-09-23T14:13:29;10.47;;;4.07;;
6414;SDS011;3240;48.790;9.210;2022-09-23T14:15:58;6.07;;;4.40;;
6414;SDS011;3240;48.790;9.210;2022-09-23T14:18:34;4.20;;;3.37;;
6414;SDS011;3240;48.790;9.210;2022-09-23T14:21:03;5.68;;;4.25;;
6414;SDS011;3240;48.790;9.210;2022-09-23T14:23:31;8.27;;;3.80;;
6414;SDS011;3240;48.790;9.210;2022-09-23T14:25:59;5.00;;;3.60;;
6414;SDS011;3240;48.790;9.210;2022-09-23T14:28:27;3.47;;;3.10;;
6414;SDS011;3240;48.790;9.210;2022-09-23T14:30:55;10.43;;;4.00;;
6414;SDS011;3240;48.790;9.210;2022-09-23T14:33:27;5.97;;;3.50;;
6414;SDS011;3240;48.790;9.210;2022-09-23T14:35:55;8.00;;;4.43;;
6414;SDS011;3240;48.790;9.210;2022-09-23T14:38:22;4.20;;;3.77;;
6414;SDS011;3240;48.790;9.210;2022-09-23T14:40:56;7.20;;;3.77;;
6414;SDS011;3240;48.790;9.210;2022-09-23T14:43:25;7.03;;;4.47;;
6414;SDS011;3240;48.790;9.210;2022-09-23T14:45:54;6.22;;;3.75;;
6414;SDS011;3240;48.790;9.210;2022-09-23T14:48:25;4.17;;;3.77;;
6414;SDS011;3240;48.790;9.210;2022-09-23T14:50:57;4.90;;;3.30;;
6414;SDS011;3240;48.790;9.210;2022-09-23T14:53:41;13.00;;;3.70;;
6414;SDS011;3240;48.790;9.210;2022-09-23T14:56:11;3.33;;;3.03;;
6414;SDS011;3240;48.790;9.210;2022-09-23T14:58:41;8.73;;;3.50;;
6414;SDS011;3240;48.790;9.210;2022-09-23T15:03:45;3.80;;;2.60;;
6414;SDS011;3240;48.790;9.210;2022-09-23T15:06:12;3.73;;;2.93;;
6414;SDS011;3240;48.790;9.210;2022-09-23T15:08:40;5.50;;;3.30;;
6414;SDS011;3240;48.790;9.210;2022-09-23T15:11:08;7.73;;;3.60;;
6414;SDS011;3240;48.790;9.210;2022-09-23T15:13:39;4.10;;;3.20;;
6414;SDS011;3240;48.790;9.210;2022-09-23T15:16:06;5.93;;;4.03;;
6414;SDS011;3240;48.790;9.210;2022-09-23T15:18:35;7.67;;;3.87;;
6414;SDS011;3240;48.790;9.210;2022-09-23T15:21:09;4.63;;;3.27;;
6414;SDS011;3240;48.790;9.210;2022-09-23T15:23:43;7.20;;;3.23;;
6414;SDS011;3240;48.790;9.210;2022-09-23T15:26:12;6.57;;;3.63;;
6414;SDS011;3240;48.790;9.210;2022-09-23T15:28:38;3.53;;;3.23;;
6414;SDS011;3240;48.790;9.210;2022-09-23T15:31:10;6.83;;;3.17;;
6414;SDS011;3240;48.790;9.210;2022-09-23T15:33:37;5.20;;;3.57;;
6414;SDS011;3240;48.790;9.210;2022-09-23T15:36:05;7.60;;;4.00;;
6414;SDS011;3240;48.790;9.210;2022-09-23T15:38:33;6.27;;;3.70;;
6414;SDS011;3240;48.790;9.210;2022-09-23T15:41:01;4.40;;;3.47;;
6414;SDS011;3240;48.790;9.210;2022-09-23T15:43:29;3.50;;;3.20;;
6414;SDS011;3240;48.790;9.210;2022-09-23T15:45:58;4.03;;;3.00;;
6414;SDS011;3240;48.790;9.210;2022-09-23T15:48:27;3.57;;;2.80;;
6414;SDS011;3240;48.790;9.210;2022-09-23T15:50:54;7.97;;;3.60;;
6414;SDS011;3240;48.790;9.210;2022-09-23T15:53:24;4.77;;;4.00;;
6414;SDS011;3240;48.790;9.210;2022-09-23T15:55:50;7.70;;;3.80;;
6414;SDS011;3240;48.790;9.210;2022-09-23T15:58:19;6.17;;;4.20;;
6414;SDS011;3240;48.790;9.210;2022-09-23T16:00:48;4.33;;;3.50;;
6414;SDS011;3240;48.790;9.210;2022-09-23T16:03:15;6.47;;;3.23;;
6414;SDS011;3240;48.790;9.210;2022-09-23T16:05:43;6.13;;;3.97;;
6414;SDS011;3240;48.790;9.210;2022-09-23T16:08:11;7.80;;;4.43;;
6414;SDS011;3240;48.790;9.210;2022-09-23T16:10:40;8.30;;;4.30;;
6414;SDS011;3240;48.790;9.210;2022-09-23T16:13:10;6.40;;;3.50;;
6414;SDS011;3240;48.790;9.210;2022-09-23T16:15:38;4.73;;;3.50;;
6414;SDS011;3240;48.790;9.210;2022-09-23T16:18:06;6.15;;;3.72;;
6414;SDS011;3240;48.790;9.210;2022-09-23T16:20:35;8.20;;;2.93;;
6414;SDS011;3240;48.790;9.210;2022-09-23T16:23:05;4.17;;;3.37;;
6414;SDS011;3240;48.790;9.210;2022-09-23T16:25:32;5.07;;;3.00;;
6414;SDS011;3240;48.790;9.210;2022-09-23T16:28:00;6.60;;;2.97;;
6414;SDS011;3240;48.790;9.210;2022-09-23T16:30:29;5.60;;;3.07;;